Quick Links (Output Below):   Max & Min Temps   /   Climate Reports   /   Zone Forecasts
River Forecasts   /   Forestry Forecasts   /   Aviation Forecasts   /   Radars   /   Features

Terminal Aerodrome Forecast (Monticello)

Pick a Site:
Arkadelphia | El Dorado | Fayetteville | Fort Smith | Harrison | Highfill | Hot Springs | Jonesboro
Little Rock | Monticello | Mountain Home | Pine Bluff | Texarkana
 Forecast 

KLLQ 300540Z 3006/3106 VRB03KT P6SM SCT100 BKN250
      TEMPO 3009/3013 5SM BR
     FM301500 17005KT P6SM SCT050 BKN250
     FM310100 VRB03KT P6SM SCT250=


 Latest METARs (Observations) 
How to Decode METARs
08Z KLLQ 300753Z AUTO 00000KT 10SM CLR 24/20 A2998 RMK AO2 SLP146
         T02440200 $
         
07Z KLLQ 300653Z AUTO 00000KT 10SM CLR 23/21 A2999 RMK AO2 SLP152
         T02330211 $
         
06Z KLLQ 300553Z AUTO 00000KT 10SM CLR 24/21 A3000 RMK AO2 SLP155
         T02390206 10306 20239 403390178 58002 $
         
05Z KLLQ 300453Z AUTO 00000KT 10SM CLR 26/21 A3001 RMK AO2 SLP158
         T02560206 $
         
04Z KLLQ 300353Z AUTO 00000KT 10SM CLR 24/21 A3001 RMK AO2 SLP158
         T02440206 $
         
03Z KLLQ 300253Z AUTO 00000KT 10SM CLR 26/21 A3000 RMK AO2 SLP156
         T02560211 53013 $
         
02Z KLLQ 300153Z AUTO 00000KT 10SM CLR 26/21 A2998 RMK AO2 SLP150
         T02560206 $
         
01Z KLLQ 300053Z AUTO 33004KT 10SM CLR 29/19 A2997 RMK AO2 SLP145
         T02890189 $
         
00Z KLLQ 292353Z AUTO 00000KT 10SM CLR 31/21 A2997 RMK AO2 SLP144
         T03060206 10339 20306 55007 $
         
***** Today's Observations (Above) *****


23Z KLLQ 292253Z AUTO 04003KT 10SM CLR 33/18 A2996 RMK AO2 SLP142
         T03280183 $
         
***** Yesterday's Observations (Above) *****


Back to Main Page
http://www.srh.noaa.gov/lzk/qfcst.php

USA.gov is the U.S. government's official web portal to all federal, state and local government web resources and services.